createdAt,value
2022-12-20T09:29:56.744Z,1.3
2022-12-20T09:34:56.870Z,1.3
2022-12-20T09:39:56.858Z,1
2022-12-20T09:44:56.379Z,1
2022-12-20T09:49:57.237Z,1.1
2022-12-20T09:54:56.816Z,1.1
2022-12-20T09:59:57.261Z,1.3
2022-12-20T10:04:57.284Z,1.3
2022-12-20T10:09:57.067Z,2
2022-12-20T10:14:57.349Z,2
2022-12-20T10:19:56.611Z,1.5
2022-12-20T10:24:56.553Z,1.5
2022-12-20T10:29:56.838Z,1.1
2022-12-20T10:34:57.484Z,1.1
2022-12-20T10:40:00.740Z,0.9
2022-12-20T10:44:56.852Z,0.9
2022-12-20T10:49:57.123Z,0.9
2022-12-20T10:54:56.959Z,0.9
2022-12-20T10:59:57.223Z,0.8
2022-12-20T11:04:56.890Z,0.8
2022-12-20T11:09:56.830Z,0.9
2022-12-20T11:14:57.193Z,0.9
2022-12-20T11:19:56.583Z,1.3
2022-12-20T11:24:57.027Z,1.3
2022-12-20T11:29:57.323Z,1.4
2022-12-20T11:34:56.765Z,1.4
2022-12-20T11:39:57.098Z,1.8
2022-12-20T11:45:06.688Z,1.8
2022-12-20T11:49:57.283Z,1.8
2022-12-20T11:54:56.832Z,1.8
2022-12-20T11:59:57.210Z,1.3
2022-12-20T12:04:57.694Z,1.3
2022-12-20T12:09:56.948Z,1.7
2022-12-20T12:14:57.274Z,1.7
2022-12-20T12:19:57.547Z,1.3
2022-12-20T12:24:56.937Z,1.3
2022-12-20T12:29:57.157Z,1.3
2022-12-20T12:34:56.629Z,1.3
2022-12-20T12:39:56.864Z,1.4
2022-12-20T12:44:57.214Z,1.4
2022-12-20T12:49:57.473Z,2
2022-12-20T12:54:57.048Z,2
2022-12-20T12:59:57.375Z,1.8
2022-12-20T13:04:56.789Z,1.8
2022-12-20T13:09:57.120Z,1.8
2022-12-20T13:14:56.611Z,1.8
2022-12-20T13:19:56.882Z,1.3
2022-12-20T13:24:57.326Z,1.3
2022-12-20T13:29:56.813Z,0.9
2022-12-20T13:34:57.391Z,0.9
2022-12-20T13:39:56.765Z,0.5
2022-12-20T13:44:57.399Z,0.5
2022-12-20T13:49:56.562Z,0.7
2022-12-20T13:54:56.981Z,0.7
2022-12-20T14:00:03.529Z,0.4
2022-12-20T14:04:57.548Z,0.4
2022-12-20T14:09:57.005Z,0.4
2022-12-20T14:14:57.406Z,0.4
2022-12-20T14:19:57.553Z,0.4
2022-12-20T14:24:56.959Z,0.4
2022-12-20T14:29:57.126Z,0.5
2022-12-20T14:34:57.372Z,0.5
2022-12-20T14:39:57.548Z,0.5
2022-12-20T14:44:57.024Z,0.5
2022-12-20T14:49:57.360Z,0.4
2022-12-20T14:55:09.306Z,0.4
2022-12-20T14:59:57.323Z,0
2022-12-20T15:04:57.390Z,0
2022-12-20T15:09:57.528Z,0.4
2022-12-20T15:15:03.686Z,0.4
2022-12-20T15:19:56.872Z,0.4
2022-12-20T15:24:57.497Z,0.4
2022-12-20T15:29:57.103Z,0.9
2022-12-20T15:34:57.588Z,0.9
2022-12-20T15:39:57.800Z,0.9
2022-12-20T15:44:57.262Z,0.9
2022-12-20T15:49:56.808Z,0.9
2022-12-20T15:54:56.941Z,0.9
2022-12-20T16:00:01.292Z,0.9
2022-12-20T16:04:56.805Z,0.9
2022-12-20T16:09:57.450Z,0.9
2022-12-20T16:14:57.555Z,0.9
2022-12-20T16:19:56.867Z,0.4
2022-12-20T16:24:57.665Z,0.4
2022-12-20T16:29:57.140Z,0.8
2022-12-20T16:34:57.423Z,0.8
2022-12-20T16:39:57.589Z,0.9
2022-12-20T16:44:57.153Z,0.9
2022-12-20T16:49:57.421Z,1.3
2022-12-20T16:54:56.943Z,1.3
2022-12-20T16:59:57.259Z,1.3
2022-12-20T17:04:56.749Z,1.3
2022-12-20T17:09:57.488Z,2.1
2022-12-20T17:14:57.042Z,2.1
2022-12-20T17:19:57.413Z,1.3
2022-12-20T17:24:57.082Z,1.3
2022-12-20T17:29:57.397Z,1.3
2022-12-20T17:34:57.780Z,1.3
2022-12-20T17:39:57.279Z,1.3
2022-12-20T17:44:57.274Z,1.3
2022-12-20T17:49:57.547Z,1.3
2022-12-20T17:54:57.259Z,1.3
2022-12-20T17:59:57.513Z,1.2
2022-12-20T18:04:57.101Z,1.2
2022-12-20T18:09:56.981Z,1
2022-12-20T18:14:57.411Z,1
2022-12-20T18:19:57.716Z,0.9
2022-12-20T18:24:57.272Z,0.9
2022-12-20T18:29:57.678Z,1.3
2022-12-20T18:34:57.182Z,1.3
2022-12-20T18:39:57.483Z,1.3
2022-12-20T18:44:56.852Z,1.3
2022-12-20T18:49:57.245Z,1.1
2022-12-20T18:54:57.469Z,1.1
2022-12-20T18:59:56.809Z,1.3
2022-12-20T19:04:57.227Z,1.3
2022-12-20T19:09:57.634Z,1
2022-12-20T19:14:57.298Z,1
2022-12-20T19:19:57.806Z,1.3
2022-12-20T19:24:57.007Z,1.3
2022-12-20T19:29:57.355Z,1
2022-12-20T19:34:57.695Z,1
2022-12-20T19:39:56.959Z,0.7
2022-12-20T19:44:57.410Z,0.7
2022-12-20T19:49:57.553Z,0.9
2022-12-20T19:54:57.024Z,0.9
2022-12-20T19:59:57.345Z,0.4
2022-12-20T20:04:57.042Z,0.4
2022-12-20T20:09:57.384Z,0.9
2022-12-20T20:14:56.879Z,0.9
2022-12-20T20:19:57.248Z,0.4
2022-12-20T20:24:57.538Z,0.4
2022-12-20T20:29:57.752Z,0.9
2022-12-20T20:34:57.745Z,0.9
2022-12-20T20:39:57.321Z,0.9
2022-12-20T20:44:57.723Z,0.9
2022-12-20T20:49:57.132Z,0.9
2022-12-20T20:54:57.154Z,0.9
2022-12-20T20:59:57.176Z,0.9
2022-12-20T21:05:35.686Z,0.9
2022-12-20T21:09:57.741Z,0.9
2022-12-20T21:15:20.697Z,0.9
2022-12-20T21:19:57.147Z,0.6
2022-12-20T21:24:57.825Z,0.6
2022-12-20T21:29:57.229Z,0.7
2022-12-20T21:34:57.417Z,0.7
2022-12-20T21:39:57.228Z,0.4
2022-12-20T21:44:57.501Z,0.4
2022-12-20T21:49:56.961Z,0.8
2022-12-20T21:54:57.957Z,0.8
2022-12-20T21:59:57.284Z,0.9
2022-12-20T22:04:57.323Z,0.9
2022-12-20T22:09:57.657Z,0.5
2022-12-20T22:14:57.158Z,0.5
2022-12-20T22:19:57.502Z,0.4
2022-12-20T22:24:57.302Z,0.4
2022-12-20T22:29:57.582Z,0.8
2022-12-20T22:34:57.853Z,0.8
2022-12-20T22:39:57.080Z,0.8
2022-12-20T22:44:57.364Z,0.8
2022-12-20T22:49:57.019Z,0.4
2022-12-20T22:54:57.411Z,0.4
2022-12-20T22:59:57.930Z,0.6
2022-12-20T23:04:57.452Z,0.6
2022-12-20T23:09:57.137Z,0.9
2022-12-20T23:15:03.592Z,0.9
2022-12-20T23:19:57.571Z,0.9
2022-12-20T23:24:57.063Z,0.9
2022-12-20T23:29:57.415Z,0.9
2022-12-20T23:34:57.701Z,0.9
2022-12-20T23:39:57.362Z,0.9
2022-12-20T23:44:57.803Z,0.9
2022-12-20T23:49:57.083Z,0.6
2022-12-20T23:55:04.521Z,0.6
2022-12-20T23:59:57.343Z,0.4
